createdAt,value
2022-09-15T00:00:09.367Z,73.9
2022-09-15T00:01:09.491Z,73.9
2022-09-15T00:02:09.567Z,74
2022-09-15T00:03:09.435Z,74
2022-09-15T00:04:09.370Z,73.8
2022-09-15T00:05:09.372Z,73.7
2022-09-15T00:06:09.374Z,73.8
2022-09-15T00:07:09.420Z,73.7
2022-09-15T00:08:09.373Z,73.7
2022-09-15T00:09:09.366Z,73.5
2022-09-15T00:10:09.366Z,73.7
2022-09-15T00:13:09.375Z,73.3
2022-09-15T00:14:09.381Z,73.3
2022-09-15T00:15:09.370Z,73.4
2022-09-15T00:16:09.417Z,73.5
2022-09-15T00:17:09.420Z,73.5
2022-09-15T00:18:09.376Z,73.5
2022-09-15T00:19:09.417Z,73.9
2022-09-15T00:20:09.362Z,73.9
2022-09-15T00:21:09.380Z,74
2022-09-15T00:22:09.401Z,74.1
2022-09-15T00:23:09.377Z,74.1
2022-09-15T00:24:09.422Z,74
2022-09-15T00:25:09.372Z,74.1
2022-09-15T00:26:09.374Z,74.1
2022-09-15T00:27:09.384Z,74.4
2022-09-15T00:29:09.375Z,74.7
2022-09-15T00:30:09.377Z,74.6
2022-09-15T00:31:09.470Z,74.5
2022-09-15T00:32:09.390Z,74.4
2022-09-15T00:34:09.373Z,74.3
2022-09-15T00:35:09.368Z,73.9
2022-09-15T00:36:09.373Z,73.9
2022-09-15T00:37:09.378Z,73.9
2022-09-15T00:38:09.374Z,74.1
2022-09-15T00:40:09.402Z,74
2022-09-15T00:41:09.388Z,74
2022-09-15T00:42:09.377Z,73.9
2022-09-15T00:43:09.376Z,73.8
2022-09-15T00:44:09.371Z,73.7
2022-09-15T00:45:09.372Z,73.8
2022-09-15T00:46:09.423Z,73.8
2022-09-15T00:47:19.166Z,73.9
2022-09-15T00:48:09.381Z,73.8
2022-09-15T00:50:09.375Z,73.8
2022-09-15T00:51:09.436Z,74
2022-09-15T00:55:09.382Z,74.1
2022-09-15T00:56:09.385Z,74.2
2022-09-15T00:57:09.381Z,74.4
2022-09-15T00:59:09.376Z,75
2022-09-15T01:00:09.373Z,75
2022-09-15T01:01:09.399Z,75
2022-09-15T01:02:09.436Z,75.1
2022-09-15T01:03:09.480Z,75.1
2022-09-15T01:05:09.376Z,74.8
2022-09-15T01:06:09.384Z,74.6
2022-09-15T01:07:09.389Z,74.6
2022-09-15T01:08:09.417Z,74.2
2022-09-15T01:09:09.374Z,74
2022-09-15T01:10:09.386Z,73.7
2022-09-15T01:11:09.384Z,73.8
2022-09-15T01:12:09.399Z,73.8
2022-09-15T01:13:09.385Z,73.8
2022-09-15T01:14:09.384Z,73.7
2022-09-15T01:16:09.442Z,73.9
2022-09-15T01:17:09.376Z,74.1
2022-09-15T01:18:09.382Z,74.2
2022-09-15T01:19:09.378Z,74.1
2022-09-15T01:20:09.388Z,74.5
2022-09-15T01:21:09.377Z,75
2022-09-15T01:22:09.381Z,74.9
2022-09-15T01:23:09.389Z,74.8
2022-09-15T01:24:09.386Z,74.9
2022-09-15T01:25:09.447Z,74.8
2022-09-15T01:26:09.387Z,74.7
2022-09-15T01:27:24.450Z,74.6
2022-09-15T01:28:09.383Z,74.5
2022-09-15T01:29:09.399Z,74.4
2022-09-15T01:30:09.380Z,74.3
2022-09-15T01:31:09.386Z,74.1
2022-09-15T01:33:09.386Z,73.7
2022-09-15T01:34:09.462Z,73.5
2022-09-15T01:37:09.393Z,74
2022-09-15T01:38:09.387Z,74
2022-09-15T01:39:09.380Z,74.1
2022-09-15T01:40:09.432Z,74.2
2022-09-15T01:41:09.393Z,74
2022-09-15T01:42:09.440Z,73.7
2022-09-15T01:43:09.381Z,73.6
2022-09-15T01:44:09.394Z,73.6
2022-09-15T01:45:09.400Z,73.5
2022-09-15T01:46:09.418Z,73.7
2022-09-15T01:47:09.387Z,73.9
2022-09-15T01:48:09.399Z,73.9
2022-09-15T01:49:09.388Z,73.9
2022-09-15T01:50:09.386Z,74
2022-09-15T01:51:09.386Z,74
2022-09-15T01:52:09.396Z,74.1
2022-09-15T01:53:09.387Z,73.9
2022-09-15T01:54:09.401Z,74
2022-09-15T01:55:09.409Z,74.3
2022-09-15T01:56:09.392Z,74.3
2022-09-15T01:58:09.384Z,74.3
2022-09-15T01:59:09.389Z,74.2
2022-09-15T02:00:09.391Z,74.2
2022-09-15T02:02:09.450Z,74
2022-09-15T02:03:09.397Z,74
2022-09-15T02:04:09.389Z,74.1
2022-09-15T02:05:09.424Z,74.4
2022-09-15T02:06:09.397Z,74.5
2022-09-15T02:07:09.393Z,74.4
2022-09-15T02:08:09.390Z,74.6
2022-09-15T02:09:09.448Z,74.8
2022-09-15T02:10:09.395Z,75
2022-09-15T02:11:09.392Z,75.2
2022-09-15T02:12:09.392Z,75.3
2022-09-15T02:13:09.393Z,75.3
2022-09-15T02:15:09.394Z,75.3
2022-09-15T02:16:09.433Z,75.3
2022-09-15T02:17:09.405Z,75.2
2022-09-15T02:18:09.416Z,75.2
2022-09-15T02:19:09.400Z,75.3
2022-09-15T02:20:09.400Z,75.4
2022-09-15T02:21:09.394Z,75.4
2022-09-15T02:22:09.404Z,75.4
2022-09-15T02:23:09.404Z,75.3
2022-09-15T02:24:09.405Z,75.4
2022-09-15T02:25:09.398Z,75.3
2022-09-15T02:26:09.392Z,75.3
2022-09-15T02:27:09.397Z,75.7
2022-09-15T02:28:09.401Z,75.8
2022-09-15T02:29:09.401Z,76.2
2022-09-15T02:30:09.397Z,76.6
2022-09-15T02:31:09.455Z,76.7
2022-09-15T02:32:09.431Z,76.6
2022-09-15T02:33:09.393Z,76.8
2022-09-15T02:34:09.403Z,76.9
2022-09-15T02:35:09.421Z,76.9
2022-09-15T02:37:09.407Z,77.4
2022-09-15T02:38:09.401Z,77.3
2022-09-15T02:39:09.407Z,77.2
2022-09-15T02:40:09.473Z,77.2
2022-09-15T02:41:09.409Z,76.9
2022-09-15T02:42:09.403Z,76.6
2022-09-15T02:43:09.400Z,76.7
2022-09-15T02:44:09.422Z,76.7
2022-09-15T02:45:09.408Z,76.3
2022-09-15T02:47:09.402Z,76.2
2022-09-15T02:48:09.398Z,76.1
2022-09-15T02:49:09.403Z,76.3
2022-09-15T02:50:09.404Z,76.3
2022-09-15T02:51:09.402Z,75.8
2022-09-15T02:52:09.404Z,76
2022-09-15T02:53:09.398Z,76.1
2022-09-15T02:54:09.412Z,76.3
2022-09-15T02:55:09.400Z,76.4
2022-09-15T02:57:09.397Z,76.1
2022-09-15T02:58:09.408Z,76.1
2022-09-15T02:59:09.407Z,76
2022-09-15T03:00:09.404Z,75.9
2022-09-15T03:01:09.443Z,75.8
2022-09-15T03:02:09.439Z,75.7
2022-09-15T03:03:09.470Z,75.6
2022-09-15T03:04:09.415Z,75.4
2022-09-15T03:05:09.406Z,75.3
2022-09-15T03:06:09.407Z,75.7
2022-09-15T03:07:09.435Z,75.5
2022-09-15T03:08:09.409Z,75.6
2022-09-15T03:09:09.409Z,75.7
2022-09-15T03:10:09.410Z,75.9
2022-09-15T03:11:09.408Z,76
2022-09-15T03:12:09.409Z,76.1
2022-09-15T03:13:09.410Z,75.9
2022-09-15T03:14:09.413Z,76
2022-09-15T03:16:09.464Z,75.9
2022-09-15T03:17:09.414Z,76
2022-09-15T03:18:09.411Z,76.1
2022-09-15T03:19:09.414Z,76.2
2022-09-15T03:20:09.489Z,76
2022-09-15T03:21:09.422Z,75.8
2022-09-15T03:22:09.431Z,75.8
2022-09-15T03:23:09.415Z,75.6
2022-09-15T03:24:09.419Z,75.7
2022-09-15T03:25:09.405Z,75.8
2022-09-15T03:26:09.413Z,75.9
2022-09-15T03:27:09.420Z,75.8
2022-09-15T03:28:09.417Z,75.7
2022-09-15T03:29:09.421Z,75.8
2022-09-15T03:30:09.415Z,75.7
2022-09-15T03:31:09.439Z,75.8
2022-09-15T03:32:09.412Z,75.8
2022-09-15T03:33:09.411Z,75.8
2022-09-15T03:34:09.435Z,75.5
2022-09-15T03:35:09.414Z,75.4
2022-09-15T03:36:09.412Z,75.2
2022-09-15T03:37:09.416Z,75.1
2022-09-15T03:38:09.468Z,75.4
2022-09-15T03:39:09.414Z,74.9
2022-09-15T03:40:09.473Z,75
2022-09-15T03:41:09.414Z,75.1
2022-09-15T03:42:09.484Z,75.2
2022-09-15T03:43:09.424Z,75.3
2022-09-15T03:44:09.413Z,74.9
2022-09-15T03:45:09.421Z,75.1
2022-09-15T03:46:09.520Z,75.1
2022-09-15T03:47:09.417Z,74.7
2022-09-15T03:48:09.419Z,74.5
2022-09-15T03:49:09.414Z,74.5
2022-09-15T03:50:09.412Z,74.7
2022-09-15T03:53:09.418Z,74.7
2022-09-15T03:54:09.433Z,74.7
2022-09-15T03:55:09.421Z,74.4
2022-09-15T03:56:09.420Z,74.4
2022-09-15T03:58:09.422Z,74.7
2022-09-15T03:59:09.437Z,74.8
2022-09-15T04:00:09.421Z,75.2
2022-09-15T04:01:09.583Z,75.3
2022-09-15T04:02:09.779Z,75.7
2022-09-15T04:03:09.419Z,75.7
2022-09-15T04:04:09.425Z,75.7
2022-09-15T04:05:09.439Z,75.8
2022-09-15T04:06:09.421Z,75.9
2022-09-15T04:07:09.422Z,75.8
2022-09-15T04:08:09.421Z,75.8
2022-09-15T04:09:09.494Z,75.5
2022-09-15T04:10:09.416Z,75.3
2022-09-15T04:11:09.427Z,75.4
2022-09-15T04:12:09.420Z,75.6
2022-09-15T04:13:09.431Z,75.7
2022-09-15T04:15:09.440Z,76.3
2022-09-15T04:16:09.482Z,76.4
2022-09-15T04:17:09.429Z,76.4
2022-09-15T04:18:09.425Z,76.2
2022-09-15T04:19:09.428Z,76.2
2022-09-15T04:20:09.425Z,76.1
2022-09-15T04:21:09.427Z,75.9
2022-09-15T04:22:09.433Z,75.8
2022-09-15T04:23:09.428Z,76
2022-09-15T04:24:09.429Z,76.2
2022-09-15T04:25:09.426Z,76.2
2022-09-15T04:26:09.430Z,76.2
2022-09-15T04:27:09.425Z,76.2
2022-09-15T04:28:09.433Z,76.2
2022-09-15T04:29:09.458Z,76.6
2022-09-15T04:30:09.427Z,76.8
2022-09-15T04:31:09.642Z,76.7
2022-09-15T04:32:09.433Z,76.5
2022-09-15T04:33:09.465Z,76.4
2022-09-15T04:34:09.424Z,76.6
2022-09-15T04:35:09.433Z,76.6
2022-09-15T04:36:09.438Z,76.5
2022-09-15T04:37:09.432Z,76.5
2022-09-15T04:38:09.431Z,76.6
2022-09-15T04:39:09.428Z,76.5
2022-09-15T04:40:09.521Z,76.6
2022-09-15T04:41:09.432Z,76.7
2022-09-15T04:42:09.433Z,77.3
2022-09-15T04:44:09.431Z,77.5
2022-09-15T04:45:09.434Z,77.4
2022-09-15T04:46:09.468Z,77.3
2022-09-15T04:47:09.432Z,77.1
2022-09-15T04:48:09.430Z,77.1
2022-09-15T04:49:09.431Z,76.9
2022-09-15T04:50:09.434Z,76.7
2022-09-15T04:51:09.431Z,76.6
2022-09-15T04:52:09.903Z,76.4
2022-09-15T04:53:09.434Z,76.5
2022-09-15T04:54:09.444Z,76.5
2022-09-15T04:55:09.433Z,76.5
2022-09-15T04:56:09.432Z,76.5
2022-09-15T04:57:09.435Z,76.6
2022-09-15T04:58:09.468Z,76.8
2022-09-15T04:59:09.425Z,76.7
2022-09-15T05:00:09.438Z,76.7
2022-09-15T05:01:09.539Z,76.4
2022-09-15T05:02:09.516Z,76.2
2022-09-15T05:03:09.432Z,76.2
2022-09-15T05:05:09.435Z,76.1
2022-09-15T05:06:09.445Z,76
2022-09-15T05:07:09.436Z,76
2022-09-15T05:08:09.443Z,76.2
2022-09-15T05:09:10.510Z,76.4
2022-09-15T05:10:09.431Z,76.6
2022-09-15T05:11:09.459Z,76.6
2022-09-15T05:12:09.438Z,76.7
2022-09-15T05:13:09.434Z,76.8
2022-09-15T05:14:09.434Z,76.7
2022-09-15T05:16:09.487Z,76.9
2022-09-15T05:17:09.437Z,76.8
2022-09-15T05:18:09.433Z,76.5
2022-09-15T05:19:09.435Z,76.2
2022-09-15T05:20:09.443Z,76.1
2022-09-15T05:21:09.441Z,75.9
2022-09-15T05:22:09.436Z,75.9
2022-09-15T05:23:09.438Z,76.1
2022-09-15T05:24:09.445Z,76
2022-09-15T05:25:09.487Z,76
2022-09-15T05:26:09.437Z,75.8
2022-09-15T05:27:09.438Z,75.8
2022-09-15T05:28:09.448Z,75.8
2022-09-15T05:29:09.448Z,75.6
2022-09-15T05:30:36.024Z,75.5
2022-09-15T05:31:09.530Z,75.3
2022-09-15T05:32:09.441Z,75.1
2022-09-15T05:33:09.440Z,75
2022-09-15T05:34:09.443Z,74.7
2022-09-15T05:35:09.444Z,74.9
2022-09-15T05:36:09.447Z,75.1
2022-09-15T05:37:09.446Z,75.1
2022-09-15T05:38:09.442Z,74.8
2022-09-15T05:39:09.444Z,75
2022-09-15T05:40:09.495Z,75.1
2022-09-15T05:41:09.445Z,75.1
2022-09-15T05:43:09.449Z,75.3
2022-09-15T05:44:09.441Z,75.5
2022-09-15T05:45:09.440Z,75.5
2022-09-15T05:46:09.495Z,75.6
2022-09-15T05:47:09.505Z,75.7
2022-09-15T05:48:09.440Z,75.9
2022-09-15T05:49:09.449Z,75.6
2022-09-15T05:50:09.449Z,75.6
2022-09-15T05:51:09.452Z,75.7
2022-09-15T05:52:09.446Z,75.8
2022-09-15T05:53:09.450Z,75.8
2022-09-15T05:54:09.451Z,76
2022-09-15T05:55:09.441Z,76
2022-09-15T05:56:09.441Z,76.2
2022-09-15T05:57:09.453Z,75.9
2022-09-15T05:58:09.471Z,75.7
2022-09-15T05:59:09.446Z,75.9
2022-09-15T06:00:09.442Z,75.9
2022-09-15T06:01:09.449Z,75.7
2022-09-15T06:02:09.553Z,75.7
2022-09-15T06:03:09.487Z,75.4
2022-09-15T06:04:09.500Z,75.3
2022-09-15T06:05:09.450Z,75.3
2022-09-15T06:06:09.452Z,75.4
2022-09-15T06:07:09.445Z,75.5
2022-09-15T06:08:09.452Z,75.2
2022-09-15T06:09:09.458Z,75.1
2022-09-15T06:10:09.445Z,75
2022-09-15T06:11:09.457Z,75.1
2022-09-15T06:12:09.452Z,75.2
2022-09-15T06:13:09.456Z,75.3
2022-09-15T06:14:09.450Z,75.4
2022-09-15T06:15:09.455Z,75.6
2022-09-15T06:16:09.508Z,75.7
2022-09-15T06:17:09.451Z,75.8
2022-09-15T06:19:09.455Z,75.6
2022-09-15T06:20:09.451Z,75.5
2022-09-15T06:21:09.451Z,75.5
2022-09-15T06:22:09.451Z,75.4
2022-09-15T06:23:09.456Z,75.3
2022-09-15T06:24:09.455Z,75.2
2022-09-15T06:25:09.476Z,75.2
2022-09-15T06:26:09.454Z,75.5
2022-09-15T06:27:09.462Z,75.5
2022-09-15T06:28:09.462Z,75.7
2022-09-15T06:29:09.483Z,75.5
2022-09-15T06:30:09.456Z,75.6
2022-09-15T06:31:09.456Z,75.8
2022-09-15T06:32:09.535Z,76
2022-09-15T06:34:09.463Z,76.2
2022-09-15T06:35:09.458Z,76.1
2022-09-15T06:36:09.455Z,75.8
2022-09-15T06:37:09.454Z,75.7
2022-09-15T06:38:09.510Z,75.8
2022-09-15T06:39:09.465Z,75.7
2022-09-15T06:40:09.485Z,75.8
2022-09-15T06:41:09.455Z,75.9
2022-09-15T06:42:10.344Z,75.8
2022-09-15T06:43:09.463Z,75.9
2022-09-15T06:44:09.457Z,75.8
2022-09-15T06:45:09.476Z,75.8
2022-09-15T06:46:09.498Z,75.5
2022-09-15T06:47:09.457Z,75.2
2022-09-15T06:48:24.119Z,75.2
2022-09-15T06:50:09.452Z,74.9
2022-09-15T06:51:09.461Z,74.7
2022-09-15T06:52:09.457Z,74.7
2022-09-15T06:54:09.458Z,74.5
2022-09-15T06:55:09.464Z,74.6
2022-09-15T06:56:09.460Z,74.5
2022-09-15T06:57:09.453Z,74.6
2022-09-15T06:58:09.465Z,74.5
2022-09-15T06:59:09.462Z,74.7
2022-09-15T07:00:09.487Z,74.5
2022-09-15T07:01:09.464Z,74.5
2022-09-15T07:02:09.555Z,74.3
2022-09-15T07:03:09.620Z,74.3
2022-09-15T07:04:09.464Z,73.7
2022-09-15T07:05:09.464Z,73.8
2022-09-15T07:06:09.460Z,73.9
2022-09-15T07:07:09.479Z,73.7
2022-09-15T07:08:09.462Z,73.9
2022-09-15T07:09:09.460Z,74.1
2022-09-15T07:11:09.466Z,73.5
2022-09-15T07:12:09.464Z,73.3
2022-09-15T07:13:09.463Z,73.4
2022-09-15T07:14:09.463Z,73.3
2022-09-15T07:15:09.464Z,73.4
2022-09-15T07:16:09.493Z,72.7
2022-09-15T07:17:09.464Z,72.6
2022-09-15T07:18:09.471Z,72.6
2022-09-15T07:19:09.467Z,72.7
2022-09-15T07:20:09.471Z,72.9
2022-09-15T07:21:09.468Z,72.4
2022-09-15T07:22:09.476Z,72.6
2022-09-15T07:23:09.469Z,72.4
2022-09-15T07:24:09.460Z,71.8
2022-09-15T07:25:09.467Z,71.9
2022-09-15T07:26:09.477Z,71.9
2022-09-15T07:27:09.467Z,72
2022-09-15T07:28:09.459Z,72
2022-09-15T07:29:09.463Z,72.1
2022-09-15T07:30:09.472Z,72.1
2022-09-15T07:31:09.538Z,71.8
2022-09-15T07:32:09.593Z,71.5
2022-09-15T07:33:09.471Z,70.9
2022-09-15T07:34:09.466Z,70.7
2022-09-15T07:35:09.473Z,70.9
2022-09-15T07:36:09.467Z,71.1
2022-09-15T07:37:09.476Z,71
2022-09-15T07:38:09.467Z,70.6
2022-09-15T07:39:09.473Z,70.7
2022-09-15T07:40:09.560Z,71
2022-09-15T07:41:09.470Z,71.4
2022-09-15T07:43:09.472Z,71
2022-09-15T07:44:09.511Z,70.7
2022-09-15T07:45:09.473Z,70.3
2022-09-15T07:46:09.567Z,70.4
2022-09-15T07:49:09.520Z,71.5
2022-09-15T07:50:09.478Z,71.6
2022-09-15T07:51:09.476Z,71.4
2022-09-15T07:52:09.484Z,71.6
2022-09-15T07:53:09.489Z,72.2
2022-09-15T07:54:09.475Z,71.8
2022-09-15T07:55:09.490Z,72.1
2022-09-15T07:56:09.477Z,72.1
2022-09-15T07:58:09.480Z,71.5
2022-09-15T07:59:09.474Z,71.4
2022-09-15T08:00:09.474Z,71.9
2022-09-15T08:01:09.549Z,71.8
2022-09-15T08:04:09.480Z,70.4
2022-09-15T08:05:09.488Z,70.4
2022-09-15T08:07:09.500Z,70.2
2022-09-15T08:08:09.487Z,70.4
2022-09-15T08:16:09.547Z,70.6
2022-09-15T08:19:09.479Z,70.6
2022-09-15T08:24:09.494Z,69.4
2022-09-15T08:26:13.642Z,69.8
2022-09-15T08:27:09.488Z,69.9
2022-09-15T08:28:09.490Z,69.7
2022-09-15T08:29:09.493Z,68.3
2022-09-15T08:30:09.657Z,68.6
2022-09-15T08:31:09.507Z,69
2022-09-15T08:33:09.512Z,68.6
2022-09-15T08:34:09.484Z,68.8
2022-09-15T08:36:09.484Z,69.3
2022-09-15T08:37:09.495Z,69.9
2022-09-15T08:38:09.485Z,70.2
2022-09-15T08:39:09.490Z,70.3
2022-09-15T08:40:09.555Z,69.9
2022-09-15T08:41:09.497Z,69.6
2022-09-15T08:42:09.503Z,69.8
2022-09-15T08:44:09.510Z,69.8
2022-09-15T08:45:09.502Z,69.7
2022-09-15T08:47:09.496Z,71
2022-09-15T08:49:09.488Z,68.9
2022-09-15T08:51:09.491Z,69.1
2022-09-15T08:52:09.568Z,69.1
2022-09-15T08:54:09.508Z,68.2
2022-09-15T08:59:09.491Z,65.5
2022-09-15T09:01:09.619Z,67.2
2022-09-15T09:04:09.654Z,66.5
2022-09-15T09:05:09.491Z,66.8
2022-09-15T09:06:09.496Z,67.4
2022-09-15T09:07:09.497Z,68.2
2022-09-15T09:09:09.548Z,66.3
2022-09-15T09:13:09.504Z,63.6
2022-09-15T09:17:09.506Z,63.8
2022-09-15T09:18:09.504Z,64.2
2022-09-15T09:19:09.508Z,64.1
2022-09-15T09:27:09.503Z,62.2
2022-09-15T09:28:09.505Z,62.4
2022-09-15T09:29:09.510Z,62.4
2022-09-15T09:30:09.513Z,62.8
2022-09-15T09:32:09.506Z,62.6
2022-09-15T09:34:09.507Z,62.9
2022-09-15T09:36:09.499Z,59.6
2022-09-15T09:43:09.510Z,62.8
2022-09-15T09:44:09.506Z,62.9
2022-09-15T09:45:09.550Z,63.1
2022-09-15T09:46:09.531Z,61.8
2022-09-15T09:47:09.508Z,61.2
2022-09-15T09:49:09.514Z,62.6
2022-09-15T09:50:09.554Z,62.8
2022-09-15T09:51:09.505Z,63
2022-09-15T09:53:09.507Z,60.8
2022-09-15T09:54:09.510Z,60.4
2022-09-15T09:58:09.518Z,61.7
2022-09-15T10:02:09.509Z,60.6
2022-09-15T10:03:09.515Z,59.4
2022-09-15T10:05:09.596Z,60.3
2022-09-15T10:07:09.511Z,61.1
2022-09-15T10:08:09.511Z,61.1
2022-09-15T10:11:09.513Z,60.8
2022-09-15T10:12:09.510Z,60.4
2022-09-15T10:23:09.525Z,58.7
2022-09-15T10:25:09.513Z,58.6
2022-09-15T10:35:09.516Z,59.9
2022-09-15T10:36:09.567Z,60.1
2022-09-15T10:37:09.553Z,60.6
2022-09-15T10:40:09.560Z,62.8
2022-09-15T10:42:09.530Z,62.4
2022-09-15T10:44:09.522Z,62.3
2022-09-15T10:46:09.584Z,63.8
2022-09-15T10:48:09.517Z,64.4
2022-09-15T10:49:09.533Z,65.2
2022-09-15T10:50:09.519Z,65.8
2022-09-15T10:51:09.518Z,64.9
2022-09-15T10:52:09.521Z,65.8
2022-09-15T10:55:09.521Z,65.6
2022-09-15T11:02:09.639Z,66.5
2022-09-15T11:12:09.524Z,68.1
2022-09-15T11:13:09.529Z,68.1
2022-09-15T11:14:09.524Z,67.3
2022-09-15T11:21:09.523Z,65.4
2022-09-15T11:22:09.556Z,65.4
2022-09-15T11:23:09.530Z,65.5
2022-09-15T11:24:09.531Z,66.4
2022-09-15T11:26:09.528Z,66.7
2022-09-15T11:28:09.525Z,65.7
2022-09-15T11:29:09.526Z,66.3
2022-09-15T11:30:09.528Z,66.2
2022-09-15T11:58:09.537Z,64.5
2022-09-15T11:59:09.542Z,65
2022-09-15T12:00:09.546Z,65.1
2022-09-15T12:02:09.590Z,65.8
2022-09-15T12:05:09.543Z,64.8
2022-09-15T12:10:09.566Z,66
2022-09-15T12:12:09.536Z,65.1
2022-09-15T12:14:09.543Z,65.1
2022-09-15T12:21:09.547Z,66.1
2022-09-15T12:22:09.550Z,66.2
2022-09-15T12:23:09.545Z,66.4
2022-09-15T12:26:09.540Z,66.7
2022-09-15T12:27:09.548Z,66.8
2022-09-15T12:28:09.553Z,66.4
2022-09-15T12:30:09.546Z,65.3
2022-09-15T12:32:09.545Z,64
2022-09-15T12:33:09.550Z,64.9
2022-09-15T12:35:13.467Z,65.2
2022-09-15T12:36:09.556Z,65.1
2022-09-15T12:37:09.545Z,64.9
2022-09-15T12:38:10.309Z,65.7
2022-09-15T12:39:09.552Z,64.8
2022-09-15T12:40:09.757Z,65.3
2022-09-15T12:41:09.576Z,65.2
2022-09-15T12:42:09.546Z,65
2022-09-15T12:43:09.545Z,65.2
2022-09-15T12:52:09.559Z,64.7
2022-09-15T13:04:09.557Z,64.1
2022-09-15T13:08:09.566Z,62
2022-09-15T13:16:09.603Z,56.8
2022-09-15T13:20:09.562Z,55.6
2022-09-15T13:30:09.561Z,56.8
2022-09-15T13:49:09.568Z,55.5
2022-09-15T13:53:09.563Z,55
2022-09-15T13:54:09.564Z,55.4
2022-09-15T13:55:09.564Z,55
2022-09-15T14:18:09.580Z,53.6
2022-09-15T14:34:09.590Z,53.4
2022-09-15T14:37:09.607Z,54.5
2022-09-15T14:38:09.594Z,54.9
2022-09-15T14:39:09.576Z,54.6
2022-09-15T14:41:09.580Z,55.6
2022-09-15T14:53:09.582Z,55.4
2022-09-15T15:05:09.591Z,55.4
2022-09-15T15:06:28.428Z,55.9
2022-09-15T15:07:09.588Z,56.7
2022-09-15T15:09:09.591Z,54.6
2022-09-15T15:10:09.591Z,54.9
2022-09-15T15:11:09.589Z,54.6
2022-09-15T15:12:09.589Z,54.9
2022-09-15T15:16:09.660Z,55.5
2022-09-15T15:22:09.592Z,55
2022-09-15T15:24:09.597Z,54.8
2022-09-15T15:32:09.597Z,54.6
2022-09-15T15:36:09.597Z,54.8
2022-09-15T15:40:09.643Z,56
2022-09-15T15:42:09.611Z,56.1
2022-09-15T15:43:09.594Z,55.6
2022-09-15T15:44:09.601Z,55.9
2022-09-15T15:45:09.595Z,56
2022-09-15T15:54:09.597Z,55.6
2022-09-15T15:55:09.596Z,54.7
2022-09-15T16:00:09.598Z,53.6
2022-09-15T16:03:09.609Z,53
2022-09-15T16:04:09.605Z,51.7
2022-09-15T16:05:09.616Z,52.3
2022-09-15T16:15:09.599Z,49.2
2022-09-15T16:16:09.647Z,49.3
2022-09-15T16:17:09.603Z,48.7
2022-09-15T16:22:09.653Z,48.4
2022-09-15T16:25:09.608Z,49.1
2022-09-15T16:26:09.605Z,48.3
2022-09-15T16:34:09.607Z,47.6
2022-09-15T16:36:09.613Z,48.7
2022-09-15T16:37:09.613Z,47.7
2022-09-15T16:38:09.667Z,48.2
2022-09-15T16:39:09.630Z,48.8
2022-09-15T16:42:09.680Z,49.1
2022-09-15T16:43:09.612Z,49.3
2022-09-15T16:46:09.671Z,49.9
2022-09-15T16:47:09.622Z,50
2022-09-15T16:48:09.621Z,50
2022-09-15T17:02:09.730Z,50.7
2022-09-15T17:15:09.620Z,51.7
2022-09-15T17:19:09.620Z,52.2
2022-09-15T17:21:09.616Z,52.7
2022-09-15T17:24:09.619Z,52.3
2022-09-15T17:30:09.636Z,52.1
2022-09-15T17:31:09.664Z,52.5
2022-09-15T17:54:09.632Z,51.3
2022-09-15T17:55:09.625Z,51.6
2022-09-15T17:57:09.628Z,51.4
2022-09-15T17:58:09.636Z,51.7
2022-09-15T17:59:14.272Z,52.4
2022-09-15T18:00:09.640Z,52.8
2022-09-15T18:15:09.642Z,53.8
2022-09-15T18:16:09.706Z,52.5
2022-09-15T18:17:09.641Z,52.4
2022-09-15T18:19:09.653Z,52.8
2022-09-15T18:20:09.634Z,53.1
2022-09-15T18:21:09.636Z,52.8
2022-09-15T18:22:09.669Z,52.3
2022-09-15T18:24:09.632Z,53.9
2022-09-15T18:38:10.165Z,54
2022-09-15T19:12:09.668Z,57.5
2022-09-15T19:16:09.710Z,56.3
2022-09-15T19:28:09.652Z,56.1
2022-09-15T19:31:09.724Z,55.4
2022-09-15T19:56:09.666Z,57.6
2022-09-15T19:57:09.668Z,58.1
2022-09-15T19:58:09.662Z,58.2
2022-09-15T20:03:09.681Z,57.8
2022-09-15T20:07:09.662Z,57.8
2022-09-15T20:12:09.751Z,57.6
2022-09-15T20:13:09.674Z,57.2
2022-09-15T20:20:09.670Z,56.6
2022-09-15T20:27:09.757Z,56.6
2022-09-15T21:29:09.686Z,62.3
2022-09-15T21:30:09.686Z,62.1
2022-09-15T21:31:09.682Z,62.4
2022-09-15T21:45:09.689Z,62.1
2022-09-15T21:49:09.693Z,61.9
2022-09-15T21:50:09.693Z,61.8
2022-09-15T21:52:09.682Z,61.7
2022-09-15T21:53:09.685Z,61.6
2022-09-15T21:58:09.696Z,61.8
2022-09-15T22:04:09.692Z,61.4
2022-09-15T22:18:09.991Z,61.3
2022-09-15T22:33:09.698Z,61.5
2022-09-15T22:40:09.751Z,61.8
2022-09-15T22:52:09.695Z,62.9
2022-09-15T23:00:09.705Z,63.8
2022-09-15T23:25:09.712Z,64
2022-09-15T23:27:09.722Z,63.8
